createdAt,value
2019-02-28T00:00:13.339Z,7.84
2019-02-28T00:02:41.652Z,7.88
2019-02-28T00:05:09.942Z,7.77
2019-02-28T00:07:38.245Z,7.76
2019-02-28T00:10:08.074Z,7.73
2019-02-28T00:12:36.361Z,7.73
2019-02-28T00:15:07.479Z,7.74
2019-02-28T00:17:35.775Z,7.71
2019-02-28T00:20:05.193Z,7.69
2019-02-28T00:22:33.467Z,7.70
2019-02-28T00:25:04.224Z,7.62
2019-02-28T00:27:31.757Z,7.55
2019-02-28T00:30:00.048Z,7.51
2019-02-28T00:32:28.389Z,7.52
2019-02-28T00:34:56.670Z,7.47
2019-02-28T00:37:25.740Z,7.40
2019-02-28T00:39:54.035Z,7.36
2019-02-28T00:42:22.326Z,7.28
2019-02-28T00:44:50.603Z,7.22
2019-02-28T00:47:18.889Z,7.25
2019-02-28T00:49:47.163Z,7.21
2019-02-28T00:52:15.479Z,7.07
2019-02-28T00:54:44.542Z,7.07
2019-02-28T00:57:12.850Z,7.08
2019-02-28T00:59:41.127Z,6.99
2019-02-28T01:02:09.473Z,6.86
2019-02-28T01:04:37.733Z,6.86
2019-02-28T01:07:06.042Z,6.88
2019-02-28T01:09:34.317Z,6.83
2019-02-28T01:12:02.593Z,6.75
2019-02-28T01:14:32.459Z,6.74
2019-02-28T01:17:00.906Z,6.69
2019-02-28T01:19:29.188Z,6.66
2019-02-28T01:21:57.499Z,6.61
2019-02-28T01:24:25.798Z,6.60
2019-02-28T01:26:54.066Z,6.55
2019-02-28T01:29:22.349Z,6.62
2019-02-28T01:31:50.641Z,6.57
2019-02-28T01:34:18.932Z,6.65
2019-02-28T01:36:48.820Z,6.60
2019-02-28T01:39:17.247Z,6.61
2019-02-28T01:41:45.917Z,6.60
2019-02-28T01:44:14.185Z,6.61
2019-02-28T01:46:42.467Z,6.60
2019-02-28T01:49:10.762Z,6.58
2019-02-28T01:51:39.029Z,6.59
2019-02-28T01:54:07.326Z,6.58
2019-02-28T01:56:36.998Z,6.48
2019-02-28T01:59:05.647Z,6.47
2019-02-28T02:01:33.905Z,6.48
2019-02-28T02:04:02.180Z,6.46
2019-02-28T02:06:30.455Z,6.35
2019-02-28T02:08:58.749Z,6.37
2019-02-28T02:11:27.355Z,6.32
2019-02-28T02:13:55.589Z,6.28
2019-02-28T02:16:27.708Z,6.33
2019-02-28T02:18:53.885Z,6.28
2019-02-28T02:21:22.271Z,6.26
2019-02-28T02:23:52.961Z,6.24
2019-02-28T02:26:20.566Z,6.28
2019-02-28T02:28:48.934Z,6.22
2019-02-28T02:31:17.238Z,6.27
2019-02-28T02:33:50.961Z,6.16
2019-02-28T02:36:17.512Z,6.17
2019-02-28T02:38:45.545Z,6.16
2019-02-28T02:41:13.858Z,6.07
2019-02-28T02:43:42.124Z,6.03
2019-02-28T02:46:10.443Z,5.93
2019-02-28T02:48:42.311Z,5.93
2019-02-28T02:51:11.292Z,5.96
2019-02-28T02:53:42.192Z,5.89
2019-02-28T02:56:09.343Z,5.84
2019-02-28T02:58:37.629Z,5.78
2019-02-28T03:01:05.916Z,5.83
2019-02-28T03:03:34.202Z,5.84
2019-02-28T03:06:02.491Z,5.93
2019-02-28T03:08:36.070Z,5.87
2019-02-28T03:11:00.771Z,5.86
2019-02-28T03:13:29.080Z,5.84
2019-02-28T03:15:59.327Z,5.84
2019-02-28T03:18:27.375Z,5.80
2019-02-28T03:20:55.680Z,5.73
2019-02-28T03:23:23.981Z,5.66
2019-02-28T03:25:52.277Z,5.60
2019-02-28T03:28:20.555Z,5.57
2019-02-28T03:30:48.851Z,5.60
2019-02-28T03:33:27.101Z,5.53
2019-02-28T03:35:47.173Z,5.52
2019-02-28T03:38:15.540Z,5.49
2019-02-28T03:40:43.840Z,5.53
2019-02-28T03:43:12.143Z,5.51
2019-02-28T03:45:40.441Z,5.48
2019-02-28T03:48:08.738Z,5.50
2019-02-28T03:50:37.016Z,5.43
2019-02-28T03:53:05.322Z,5.37
2019-02-28T03:55:40.294Z,5.31
2019-02-28T03:58:05.511Z,5.28
2019-02-28T04:00:34.376Z,5.27
2019-02-28T04:03:02.750Z,5.18
2019-02-28T04:05:31.104Z,5.14
2019-02-28T04:07:59.397Z,5.21
2019-02-28T04:10:27.671Z,5.10
2019-02-28T04:12:56.050Z,5.06
2019-02-28T04:15:24.977Z,4.98
2019-02-28T04:17:53.276Z,4.96
2019-02-28T04:20:21.594Z,4.95
2019-02-28T04:22:49.906Z,4.91
2019-02-28T04:25:22.820Z,4.85
2019-02-28T04:27:48.200Z,4.85
2019-02-28T04:30:16.600Z,4.86
2019-02-28T04:32:44.978Z,4.87
2019-02-28T04:35:13.336Z,4.83
2019-02-28T04:37:46.575Z,4.77
2019-02-28T04:40:14.625Z,4.72
2019-02-28T04:42:43.025Z,4.72
2019-02-28T04:45:12.901Z,4.70
2019-02-28T04:47:41.625Z,4.62
2019-02-28T04:50:11.252Z,4.61
2019-02-28T04:52:39.544Z,4.64
2019-02-28T04:55:08.598Z,4.59
2019-02-28T04:57:36.889Z,4.60
2019-02-28T05:00:08.591Z,4.57
2019-02-28T05:02:36.889Z,4.53
2019-02-28T05:05:05.464Z,4.55
2019-02-28T05:07:33.778Z,4.56
2019-02-28T05:10:02.061Z,4.54
2019-02-28T05:12:30.353Z,4.50
2019-02-28T05:15:02.247Z,4.48
2019-02-28T05:17:28.672Z,4.47
2019-02-28T05:19:56.981Z,4.49
2019-02-28T05:22:27.601Z,4.51
2019-02-28T05:24:55.336Z,4.53
2019-02-28T05:27:24.449Z,4.57
2019-02-28T05:29:52.878Z,4.58
2019-02-28T05:32:21.191Z,4.56
2019-02-28T05:34:51.051Z,4.61
2019-02-28T05:37:19.576Z,4.68
2019-02-28T05:39:47.846Z,4.68
2019-02-28T05:42:16.166Z,4.68
2019-02-28T05:44:44.451Z,4.71
2019-02-28T05:47:12.759Z,4.94
2019-02-28T05:49:41.990Z,4.77
2019-02-28T05:52:10.345Z,4.66
2019-02-28T05:54:38.627Z,4.68
2019-02-28T05:57:08.072Z,4.61
2019-02-28T05:59:37.102Z,4.56
2019-02-28T06:02:05.421Z,4.53
2019-02-28T06:04:34.213Z,4.61
2019-02-28T06:07:03.720Z,4.57
2019-02-28T06:09:32.015Z,4.57
2019-02-28T06:12:00.306Z,4.65
2019-02-28T06:14:28.620Z,4.63
2019-02-28T06:16:56.904Z,4.56
2019-02-28T06:19:25.273Z,4.63
2019-02-28T06:21:56.413Z,4.63
2019-02-28T06:24:23.562Z,4.57
2019-02-28T06:26:51.847Z,4.70
2019-02-28T06:29:20.174Z,4.59
2019-02-28T06:31:49.389Z,4.62
2019-02-28T06:34:17.727Z,4.67
2019-02-28T06:36:46.009Z,4.61
2019-02-28T06:39:14.294Z,4.67
2019-02-28T06:41:42.613Z,4.68
2019-02-28T06:44:10.885Z,4.67
2019-02-28T06:46:40.011Z,4.61
2019-02-28T06:49:09.065Z,4.70
2019-02-28T06:51:37.368Z,4.65
2019-02-28T06:54:07.977Z,4.60
2019-02-28T06:56:35.651Z,4.62
2019-02-28T06:59:04.886Z,4.61
2019-02-28T07:01:33.839Z,4.63
2019-02-28T07:04:02.116Z,4.66
2019-02-28T07:06:35.616Z,4.65
2019-02-28T07:09:02.421Z,4.71
2019-02-28T07:11:30.440Z,4.69
2019-02-28T07:13:58.746Z,4.69
2019-02-28T07:16:27.039Z,4.71
2019-02-28T07:18:55.358Z,4.67
2019-02-28T07:21:23.656Z,4.67
2019-02-28T07:23:53.325Z,4.71
2019-02-28T07:26:21.618Z,4.71
2019-02-28T07:28:49.913Z,4.69
2019-02-28T07:31:21.670Z,4.69
2019-02-28T07:33:51.310Z,4.72
2019-02-28T07:36:19.056Z,4.72
2019-02-28T07:38:47.339Z,4.73
2019-02-28T07:41:15.645Z,4.79
2019-02-28T07:43:46.106Z,4.78
2019-02-28T07:46:13.991Z,4.82
2019-02-28T07:48:42.275Z,4.85
2019-02-28T07:51:10.576Z,4.91
2019-02-28T07:53:41.012Z,4.94
2019-02-28T07:56:08.935Z,4.96
2019-02-28T07:58:37.242Z,5.07
2019-02-28T08:01:05.512Z,5.07
2019-02-28T08:03:33.807Z,5.13
2019-02-28T08:06:04.917Z,5.09
2019-02-28T08:08:32.244Z,5.11
2019-02-28T08:11:00.544Z,5.22
2019-02-28T08:13:28.830Z,5.32
2019-02-28T08:16:00.220Z,5.34
2019-02-28T08:18:27.155Z,5.43
2019-02-28T08:20:55.466Z,5.38
2019-02-28T08:23:23.766Z,5.42
2019-02-28T08:25:52.053Z,5.53
2019-02-28T08:28:21.040Z,5.36
2019-02-28T08:30:55.017Z,5.51
2019-02-28T08:33:19.331Z,5.48
2019-02-28T08:35:47.610Z,5.42
2019-02-28T08:38:16.018Z,5.46
2019-02-28T08:40:44.336Z,5.57
2019-02-28T08:43:13.468Z,5.61
2019-02-28T08:45:42.399Z,5.50
2019-02-28T08:48:12.663Z,5.45
2019-02-28T08:50:40.718Z,5.35
2019-02-28T08:53:09.024Z,5.46
2019-02-28T08:55:38.500Z,5.39
2019-02-28T08:58:07.353Z,5.44
2019-02-28T09:00:37.637Z,5.62
2019-02-28T09:03:05.734Z,5.60
2019-02-28T09:05:34.034Z,5.44
2019-02-28T09:08:02.323Z,5.55
2019-02-28T09:10:32.155Z,5.61
2019-02-28T09:13:00.441Z,5.82
2019-02-28T09:15:31.121Z,5.76
2019-02-28T09:17:59.728Z,5.78
2019-02-28T09:20:27.995Z,5.64
2019-02-28T09:23:01.619Z,5.73
2019-02-28T09:25:26.996Z,5.89
2019-02-28T09:27:55.370Z,5.96
2019-02-28T09:30:43.895Z,5.90
2019-02-28T09:33:12.212Z,5.78
2019-02-28T09:35:45.056Z,5.74
2019-02-28T09:38:13.405Z,5.76
2019-02-28T09:40:41.251Z,5.77
2019-02-28T09:43:09.676Z,5.87
2019-02-28T09:45:39.807Z,5.67
2019-02-28T09:48:08.004Z,5.72
2019-02-28T09:50:36.291Z,6.03
2019-02-28T09:53:04.573Z,6.12
2019-02-28T09:55:35.358Z,6.28
2019-02-28T09:58:02.900Z,6.04
2019-02-28T10:00:31.195Z,5.85
2019-02-28T10:02:59.479Z,5.91
2019-02-28T10:05:27.781Z,5.93
2019-02-28T10:08:01.735Z,6.07
2019-02-28T10:10:30.553Z,6.03
2019-02-28T10:12:58.827Z,5.96
2019-02-28T10:15:27.184Z,5.90
2019-02-28T10:17:55.485Z,5.90
2019-02-28T10:20:29.022Z,6.06
2019-02-28T10:22:57.312Z,6.07
2019-02-28T10:25:25.576Z,6.18
2019-02-28T10:27:54.631Z,6.22
2019-02-28T10:30:31.547Z,6.18
2019-02-28T10:32:55.145Z,6.05
2019-02-28T10:35:23.477Z,5.92
2019-02-28T10:37:57.325Z,5.82
2019-02-28T10:40:29.853Z,5.89
2019-02-28T10:42:58.158Z,6.22
2019-02-28T10:45:26.993Z,6.22
2019-02-28T10:47:55.366Z,6.10
2019-02-28T10:50:26.072Z,5.86
2019-02-28T10:52:54.355Z,5.94
2019-02-28T10:55:23.376Z,6.02
2019-02-28T10:57:51.759Z,6.14
2019-02-28T11:00:29.358Z,6.24
2019-02-28T11:02:57.873Z,6.07
2019-02-28T11:05:30.581Z,6.01
2019-02-28T11:07:58.915Z,6.13
2019-02-28T11:10:35.644Z,6.29
2019-02-28T11:13:02.374Z,6.23
2019-02-28T11:15:30.722Z,6.33
2019-02-28T11:17:59.023Z,6.23
2019-02-28T11:20:27.385Z,6.38
2019-02-28T11:22:55.709Z,6.36
2019-02-28T11:25:25.535Z,6.54
2019-02-28T11:27:54.673Z,6.27
2019-02-28T11:30:27.849Z,6.11
2019-02-28T11:32:56.195Z,6.05
2019-02-28T11:35:24.493Z,6.01
2019-02-28T11:37:52.873Z,6.06
2019-02-28T11:40:23.689Z,5.97
2019-02-28T11:42:51.984Z,6.10
2019-02-28T11:45:25.548Z,5.97
2019-02-28T11:47:54.626Z,6.03
2019-02-28T11:50:22.960Z,6.05
2019-02-28T11:52:51.350Z,6.17
2019-02-28T11:55:20.304Z,6.40
2019-02-28T11:57:49.591Z,6.54
2019-02-28T12:00:26.876Z,6.54
2019-02-28T12:02:59.880Z,6.13
2019-02-28T12:05:25.535Z,6.18
2019-02-28T12:07:53.800Z,6.20
2019-02-28T12:10:22.107Z,6.27
2019-02-28T12:12:50.465Z,6.53
2019-02-28T12:15:29.765Z,6.65
2019-02-28T12:18:03.618Z,6.72
2019-02-28T12:20:28.074Z,6.69
2019-02-28T12:22:56.379Z,6.62
2019-02-28T12:25:24.708Z,6.68
2019-02-28T12:27:52.997Z,6.60
2019-02-28T12:30:25.171Z,6.56
2019-02-28T12:32:54.253Z,6.55
2019-02-28T12:35:22.553Z,6.45
2019-02-28T12:37:53.992Z,6.49
2019-02-28T12:40:26.987Z,6.48
2019-02-28T12:42:55.277Z,6.66
2019-02-28T12:45:26.466Z,6.68
2019-02-28T12:47:54.774Z,6.68
2019-02-28T12:50:23.062Z,6.59
2019-02-28T12:52:51.367Z,6.58
2019-02-28T12:55:21.009Z,6.70
2019-02-28T12:57:49.311Z,6.72
2019-02-28T13:00:25.749Z,6.51
2019-02-28T13:02:54.044Z,6.57
2019-02-28T13:05:22.326Z,6.51
2019-02-28T13:07:50.607Z,6.38
2019-02-28T13:10:26.864Z,6.42
2019-02-28T13:12:50.428Z,6.36
2019-02-28T13:15:19.874Z,6.40
2019-02-28T13:17:48.167Z,6.46
2019-02-28T13:20:19.259Z,6.50
2019-02-28T13:22:47.571Z,6.62
2019-02-28T13:25:19.375Z,6.55
2019-02-28T13:27:46.212Z,6.63
2019-02-28T13:30:17.517Z,6.70
2019-02-28T13:32:45.814Z,6.57
2019-02-28T13:35:18.887Z,6.42
2019-02-28T13:37:47.216Z,6.43
2019-02-28T13:40:16.221Z,6.50
2019-02-28T13:42:44.509Z,6.63
2019-02-28T13:45:22.982Z,6.65
2019-02-28T13:47:49.609Z,6.58
2019-02-28T13:50:34.305Z,6.49
2019-02-28T13:53:17.088Z,6.56
2019-02-28T13:55:32.608Z,6.58
2019-02-28T13:58:01.071Z,6.65
2019-02-28T14:00:32.518Z,6.63
2019-02-28T14:03:10.298Z,6.57
2019-02-28T14:05:41.046Z,6.51
2019-02-28T14:08:11.185Z,6.52
2019-02-28T14:10:38.792Z,6.46
2019-02-28T14:13:07.217Z,6.52
2019-02-28T14:15:43.086Z,6.45
2019-02-28T14:18:11.930Z,6.41
2019-02-28T14:20:40.205Z,6.44
2019-02-28T14:23:08.565Z,6.50
2019-02-28T14:25:39.711Z,6.37
2019-02-28T14:28:06.884Z,6.38
2019-02-28T14:30:35.195Z,6.49
2019-02-28T14:33:03.550Z,6.43
2019-02-28T14:35:35.485Z,6.51
2019-02-28T14:38:02.520Z,6.37
2019-02-28T14:40:30.825Z,6.43
2019-02-28T14:42:59.142Z,6.52
2019-02-28T14:45:33.222Z,6.63
2019-02-28T14:48:04.379Z,6.49
2019-02-28T14:50:31.528Z,6.49
2019-02-28T14:52:59.837Z,6.33
2019-02-28T14:55:29.261Z,6.32
2019-02-28T14:57:58.146Z,6.23
2019-02-28T15:00:29.129Z,6.12
2019-02-28T15:02:59.510Z,6.23
2019-02-28T15:05:28.640Z,6.39
2019-02-28T15:07:57.386Z,6.40
2019-02-28T15:10:27.623Z,6.39
2019-02-28T15:12:58.624Z,6.44
2019-02-28T15:15:26.681Z,6.12
2019-02-28T15:17:54.966Z,6.11
2019-02-28T15:20:23.297Z,6.12
2019-02-28T15:22:52.431Z,6.03
2019-02-28T15:25:23.513Z,6.08
2019-02-28T15:27:51.795Z,6.16
2019-02-28T15:30:25.168Z,6.06
2019-02-28T15:32:54.402Z,5.97
2019-02-28T15:35:23.816Z,6.10
2019-02-28T15:37:52.162Z,6.15
2019-02-28T15:40:26.138Z,6.09
2019-02-28T15:42:54.441Z,6.05
2019-02-28T15:45:22.729Z,5.98
2019-02-28T15:47:55.413Z,6.01
2019-02-28T15:50:22.763Z,6.00
2019-02-28T15:52:51.058Z,5.98
2019-02-28T15:55:20.091Z,6.11
2019-02-28T15:57:48.374Z,5.82
2019-02-28T16:00:23.046Z,5.87
2019-02-28T16:02:51.433Z,5.84
2019-02-28T16:05:19.835Z,5.83
2019-02-28T16:07:50.433Z,5.88
2019-02-28T16:10:23.875Z,5.88
2019-02-28T16:12:52.245Z,5.86
2019-02-28T16:15:20.535Z,5.83
2019-02-28T16:17:48.820Z,5.86
2019-02-28T16:20:17.698Z,5.81
2019-02-28T16:22:46.349Z,5.90
2019-02-28T16:25:20.196Z,5.97
2019-02-28T16:27:48.577Z,5.86
2019-02-28T16:30:19.674Z,5.81
2019-02-28T16:32:49.161Z,5.81
2019-02-28T16:35:18.010Z,5.89
2019-02-28T16:37:46.298Z,5.86
2019-02-28T16:40:20.297Z,5.90
2019-02-28T16:42:50.123Z,5.87
2019-02-28T16:45:22.001Z,5.84
2019-02-28T16:47:50.298Z,5.79
2019-02-28T16:50:19.689Z,5.84
2019-02-28T16:52:48.073Z,5.86
2019-02-28T16:55:16.518Z,5.92
2019-02-28T16:57:47.016Z,5.83
2019-02-28T17:00:16.561Z,6.32
2019-02-28T17:02:44.844Z,6.29
2019-02-28T17:05:13.121Z,6.06
2019-02-28T17:07:43.676Z,6.08
2019-02-28T17:10:15.247Z,6.03
2019-02-28T17:12:45.181Z,6.04
2019-02-28T17:15:15.477Z,6.08
2019-02-28T17:17:47.125Z,6.04
2019-02-28T17:20:15.468Z,6.12
2019-02-28T17:22:43.756Z,6.03
2019-02-28T17:25:13.988Z,6.04
2019-02-28T17:27:55.402Z,6.01
2019-02-28T17:30:27.968Z,6.06
2019-02-28T17:32:56.242Z,6.01
2019-02-28T17:35:24.531Z,6.10
2019-02-28T17:37:52.836Z,6.02
2019-02-28T17:40:23.199Z,6.10
2019-02-28T17:42:51.228Z,5.99
2019-02-28T17:45:22.137Z,6.02
2019-02-28T17:48:15.765Z,5.99
2019-02-28T17:50:47.215Z,6.03
2019-02-28T17:53:45.643Z,5.97
2019-02-28T17:56:33.411Z,6.07
2019-02-28T17:59:36.123Z,6.07
2019-02-28T18:02:12.457Z,6.07
2019-02-28T18:05:03.188Z,5.98
2019-02-28T18:07:57.796Z,5.93
2019-02-28T18:10:52.197Z,5.96
2019-02-28T18:13:23.659Z,5.95
2019-02-28T18:16:23.619Z,6.01
2019-02-28T18:19:00.985Z,5.91
2019-02-28T18:21:41.925Z,5.85
2019-02-28T18:24:28.456Z,5.74
2019-02-28T18:27:02.861Z,5.78
2019-02-28T18:30:10.174Z,5.81
2019-02-28T18:32:38.422Z,5.83
2019-02-28T18:35:08.744Z,5.74
2019-02-28T18:37:37.025Z,5.76
2019-02-28T18:40:07.066Z,5.64
2019-02-28T18:42:35.337Z,5.68
2019-02-28T18:45:03.886Z,5.68
2019-02-28T18:47:32.197Z,5.60
2019-02-28T18:50:00.534Z,5.55
2019-02-28T18:52:29.066Z,5.54
2019-02-28T18:55:05.775Z,5.48
2019-02-28T18:57:27.367Z,5.36
2019-02-28T18:59:55.653Z,5.37
2019-02-28T19:02:23.938Z,5.39
2019-02-28T19:04:52.219Z,5.37
2019-02-28T19:07:20.607Z,5.31
2019-02-28T19:09:48.926Z,5.31
2019-02-28T19:12:17.177Z,5.24
2019-02-28T19:14:45.474Z,5.24
2019-02-28T19:17:13.766Z,5.25
2019-02-28T19:19:42.048Z,5.26
2019-02-28T19:22:10.360Z,5.25
2019-02-28T19:24:38.649Z,5.18
2019-02-28T19:27:06.956Z,5.13
2019-02-28T19:29:35.261Z,5.13
2019-02-28T19:32:03.552Z,5.08
2019-02-28T19:34:31.825Z,5.12
2019-02-28T19:37:00.105Z,5.14
2019-02-28T19:39:28.412Z,5.16
2019-02-28T19:41:56.705Z,5.17
2019-02-28T19:44:25.000Z,5.18
2019-02-28T19:46:53.283Z,5.19
2019-02-28T19:49:21.587Z,5.09
2019-02-28T19:51:49.866Z,5.16
2019-02-28T19:54:18.162Z,5.17
2019-02-28T19:56:46.463Z,5.16
2019-02-28T19:59:14.779Z,5.24
2019-02-28T20:01:43.059Z,5.27
2019-02-28T20:04:11.336Z,5.24
2019-02-28T20:06:39.615Z,5.14
2019-02-28T20:09:08.535Z,5.14
2019-02-28T20:11:36.846Z,5.13
2019-02-28T20:14:05.129Z,5.15
2019-02-28T20:16:33.423Z,5.10
2019-02-28T20:19:01.716Z,5.13
2019-02-28T20:21:30.010Z,5.09
2019-02-28T20:23:58.310Z,5.19
2019-02-28T20:26:26.589Z,5.10
2019-02-28T20:28:54.880Z,5.04
2019-02-28T20:31:23.162Z,4.93
2019-02-28T20:33:51.448Z,5.03
2019-02-28T20:36:19.803Z,5.12
2019-02-28T20:38:48.105Z,5.28
2019-02-28T20:41:16.407Z,5.26
2019-02-28T20:43:45.553Z,5.23
2019-02-28T20:46:13.844Z,5.21
2019-02-28T20:48:42.125Z,5.14
2019-02-28T20:51:10.419Z,5.22
2019-02-28T20:53:38.707Z,5.27
2019-02-28T20:56:07.023Z,5.36
2019-02-28T20:58:35.312Z,5.34
2019-02-28T21:01:03.765Z,5.23
2019-02-28T21:03:32.056Z,5.06
2019-02-28T21:06:00.326Z,4.97
2019-02-28T21:08:28.646Z,5.02
2019-02-28T21:10:56.927Z,4.96
2019-02-28T21:13:25.212Z,4.98
2019-02-28T21:15:53.490Z,4.97
2019-02-28T21:18:21.807Z,4.92
2019-02-28T21:20:50.082Z,4.88
2019-02-28T21:23:18.390Z,5.06
2019-02-28T21:25:46.672Z,5.07
2019-02-28T21:28:14.950Z,5.02
2019-02-28T21:30:43.227Z,5.04
2019-02-28T21:33:11.519Z,5.07
2019-02-28T21:35:39.837Z,5.04
2019-02-28T21:38:08.110Z,5.18
2019-02-28T21:40:36.417Z,5.08
2019-02-28T21:43:04.769Z,4.90
2019-02-28T21:45:33.773Z,5.03
2019-02-28T21:48:02.111Z,4.75
2019-02-28T21:50:30.413Z,4.69
2019-02-28T21:52:58.684Z,4.71
2019-02-28T21:55:26.978Z,4.66
2019-02-28T21:57:55.319Z,4.68
2019-02-28T22:00:25.521Z,4.70
2019-02-28T22:02:53.799Z,4.72
2019-02-28T22:05:22.151Z,4.72
2019-02-28T22:07:50.439Z,4.76
2019-02-28T22:10:18.783Z,4.79
2019-02-28T22:12:47.074Z,4.87
2019-02-28T22:15:18.093Z,4.84
2019-02-28T22:17:46.377Z,4.81
2019-02-28T22:20:15.065Z,4.73
2019-02-28T22:22:43.354Z,4.71
2019-02-28T22:25:13.178Z,4.68
2019-02-28T22:27:41.477Z,4.73
2019-02-28T22:30:38.683Z,4.69
2019-02-28T22:33:08.598Z,4.70
2019-02-28T22:35:43.919Z,4.75
2019-02-28T22:38:12.217Z,4.69
2019-02-28T22:40:40.517Z,4.73
2019-02-28T22:43:08.788Z,4.91
2019-02-28T22:45:37.069Z,4.90
2019-02-28T22:48:05.433Z,4.90
2019-02-28T22:50:33.713Z,4.92
2019-02-28T22:53:01.982Z,4.93
2019-02-28T22:55:30.333Z,4.95
2019-02-28T22:57:58.639Z,4.86
2019-02-28T23:01:06.681Z,4.77
2019-02-28T23:03:35.734Z,4.76
2019-02-28T23:06:04.194Z,4.68
2019-02-28T23:08:32.558Z,4.62
2019-02-28T23:11:00.833Z,4.59
2019-02-28T23:13:29.119Z,4.61
2019-02-28T23:15:57.417Z,4.73
2019-02-28T23:18:25.714Z,4.78
2019-02-28T23:20:53.994Z,4.78
2019-02-28T23:23:22.276Z,4.83
2019-02-28T23:25:50.568Z,4.84
2019-02-28T23:28:24.211Z,4.74
2019-02-28T23:31:01.487Z,4.74
2019-02-28T23:33:29.781Z,4.82
2019-02-28T23:35:58.080Z,4.72
2019-02-28T23:38:26.376Z,4.85
2019-02-28T23:40:56.520Z,4.98
2019-02-28T23:43:24.792Z,4.90
2019-02-28T23:45:53.085Z,5.00
2019-02-28T23:48:21.401Z,5.07
2019-02-28T23:50:49.694Z,4.86
2019-02-28T23:53:17.982Z,4.79
2019-02-28T23:55:46.278Z,4.81
2019-02-28T23:58:14.565Z,4.74
